N93SJ EGJJ-LFPB
Flight info
| Callsign | N93SJ |
|---|---|
| Flight time | N/A |
| Altitude | 19000 |
| Route | ORVAL DCT EKRAS DCT GALBO R491 LGL/N0266F180 Z295 PEXIR |
| Aircraft | SF50/L-BDGRSWY/LB2U2 |
Departure
| Time | N/A |
|---|---|
| Airport | Jersey Airport (EGJJ) |
Arrival
| Time | 2026-05-05 15:07 |
|---|---|
| Airport | Paris-Le Bourget International Airport (LFPB) |
| Time | Latitude | Longitude | Altitude | Speed | Heading |
|---|---|---|---|---|---|
| 2026-05-05 15:07 | 48.95063 | 2.43715 | 148 ft | 0 kts | 211° |
| 2026-05-05 15:07 | 48.95067 | 2.43695 | 148 ft | 6 kts | 298° |
| 2026-05-05 15:07 | 48.95114 | 2.43596 | 146 ft | 16 kts | 328° |
| 2026-05-05 15:08 | 48.95171 | 2.43452 | 147 ft | 16 kts | 296° |
| 2026-05-05 15:08 | 48.95228 | 2.43321 | 148 ft | 14 kts | 348° |
| 2026-05-05 15:08 | 48.95321 | 2.43373 | 149 ft | 16 kts | 24° |
| 2026-05-05 15:08 | 48.95425 | 2.43446 | 149 ft | 17 kts | 25° |
| 2026-05-05 15:09 | 48.95537 | 2.43525 | 149 ft | 19 kts | 25° |
| 2026-05-05 15:09 | 48.95661 | 2.43611 | 150 ft | 20 kts | 24° |
| 2026-05-05 15:09 | 48.95762 | 2.43675 | 150 ft | 11 kts | 359° |
| 2026-05-05 15:09 | 48.95811 | 2.43613 | 151 ft | 9 kts | 295° |
| 2026-05-05 15:10 | 48.95832 | 2.43545 | 155 ft | 7 kts | 296° |
| 2026-05-05 15:10 | 48.95875 | 2.43408 | 156 ft | 21 kts | 295° |
| 2026-05-05 15:10 | 48.95939 | 2.43195 | 152 ft | 22 kts | 295° |
| 2026-05-05 15:10 | 48.96028 | 2.42996 | 146 ft | 23 kts | 308° |
| 2026-05-05 15:11 | 48.96119 | 2.42822 | 148 ft | 18 kts | 308° |
| 2026-05-05 15:11 | 48.96183 | 2.42699 | 152 ft | 11 kts | 308° |
| 2026-05-05 15:11 | 48.96234 | 2.42602 | 155 ft | 14 kts | 309° |
| 2026-05-05 15:11 | 48.96269 | 2.42435 | 154 ft | 20 kts | 268° |
| 2026-05-05 15:12 | 48.96261 | 2.42208 | 154 ft | 21 kts | 266° |
| 2026-05-05 15:12 | 48.96325 | 2.42059 | 151 ft | 18 kts | 352° |
| 2026-05-05 15:12 | 48.96412 | 2.42128 | 150 ft | 16 kts | 68° |
| 2026-05-05 15:12 | 48.96520 | 2.42530 | 163 ft | 68 kts | 67° |
| 2026-05-05 15:13 | 48.96752 | 2.43385 | 292 ft | 101 kts | 62° |
| 2026-05-05 15:13 | 48.97061 | 2.44432 | 630 ft | 120 kts | 61° |
| 2026-05-05 15:13 | 48.97415 | 2.45705 | 1139 ft | 139 kts | 66° |
| 2026-05-05 15:13 | 48.97385 | 2.47234 | 1834 ft | 157 kts | 107° |
| 2026-05-05 15:14 | 48.96852 | 2.48702 | 2527 ft | 156 kts | 102° |
| 2026-05-05 15:14 | 48.96734 | 2.50355 | 3219 ft | 159 kts | 88° |
| 2026-05-05 15:14 | 48.96648 | 2.52049 | 3915 ft | 162 kts | 91° |
| 2026-05-05 15:14 | 48.96543 | 2.53829 | 4337 ft | 169 kts | 91° |
| 2026-05-05 15:15 | 48.96441 | 2.55610 | 4863 ft | 169 kts | 91° |
| 2026-05-05 15:15 | 48.96342 | 2.57370 | 5438 ft | 167 kts | 92° |
| 2026-05-05 15:15 | 48.96244 | 2.59130 | 6019 ft | 168 kts | 92° |
| 2026-05-05 15:15 | 48.96133 | 2.60925 | 6537 ft | 172 kts | 92° |
| 2026-05-05 15:16 | 48.96030 | 2.62742 | 7091 ft | 174 kts | 92° |
| 2026-05-05 15:16 | 48.95919 | 2.64596 | 7673 ft | 176 kts | 94° |
| 2026-05-05 15:16 | 48.95814 | 2.66451 | 8279 ft | 176 kts | 94° |
| 2026-05-05 15:16 | 48.95703 | 2.68316 | 8841 ft | 177 kts | 94° |
| 2026-05-05 15:17 | 48.95592 | 2.70195 | 9401 ft | 179 kts | 94° |
| 2026-05-05 15:17 | 48.95485 | 2.72071 | 9914 ft | 181 kts | 94° |
| 2026-05-05 15:17 | 48.95370 | 2.74007 | 10376 ft | 184 kts | 94° |
| 2026-05-05 15:17 | 48.95257 | 2.75920 | 10872 ft | 184 kts | 95° |
| 2026-05-05 15:18 | 48.95141 | 2.77869 | 11359 ft | 184 kts | 95° |
| 2026-05-05 15:18 | 48.94959 | 2.79808 | 11797 ft | 188 kts | 96° |
| 2026-05-05 15:18 | 48.94846 | 2.81796 | 12224 ft | 189 kts | 95° |
| 2026-05-05 15:18 | 48.94714 | 2.83808 | 12682 ft | 191 kts | 96° |
| 2026-05-05 15:19 | 48.94563 | 2.85814 | 13145 ft | 192 kts | 97° |
| 2026-05-05 15:19 | 48.94412 | 2.87843 | 13618 ft | 192 kts | 97° |
| 2026-05-05 15:19 | 48.94262 | 2.89873 | 13995 ft | 195 kts | 97° |
| 2026-05-05 15:19 | 48.94199 | 2.91921 | 14352 ft | 197 kts | 91° |
| 2026-05-05 15:20 | 48.94191 | 2.94029 | 14713 ft | 200 kts | 92° |
| 2026-05-05 15:20 | 48.94181 | 2.96144 | 15097 ft | 201 kts | 92° |
| 2026-05-05 15:20 | 48.94173 | 2.98276 | 15481 ft | 201 kts | 92° |
| 2026-05-05 15:20 | 48.94166 | 3.00421 | 15822 ft | 204 kts | 92° |
| 2026-05-05 15:21 | 48.94157 | 3.02589 | 16172 ft | 206 kts | 92° |
| 2026-05-05 15:21 | 48.94147 | 3.04751 | 16525 ft | 207 kts | 92° |
| 2026-05-05 15:21 | 48.94137 | 3.06954 | 16883 ft | 208 kts | 93° |
| 2026-05-05 15:21 | 48.94125 | 3.09199 | 17161 ft | 215 kts | 94° |
| 2026-05-05 15:22 | 48.94111 | 3.11503 | 17490 ft | 218 kts | 94° |
| 2026-05-05 15:22 | 48.94100 | 3.13812 | 17843 ft | 219 kts | 94° |
| 2026-05-05 15:22 | 48.94086 | 3.16098 | 18179 ft | 220 kts | 94° |
| 2026-05-05 15:22 | 48.94073 | 3.18438 | 18488 ft | 220 kts | 94° |
| 2026-05-05 15:23 | 48.94061 | 3.20779 | 18797 ft | 221 kts | 94° |
| 2026-05-05 15:23 | 48.94047 | 3.23117 | 19102 ft | 222 kts | 94° |
| 2026-05-05 15:23 | 48.94032 | 3.25467 | 19407 ft | 222 kts | 94° |
| 2026-05-05 15:23 | 48.94018 | 3.27813 | 19719 ft | 223 kts | 94° |
| 2026-05-05 15:24 | 48.94001 | 3.30182 | 20033 ft | 223 kts | 94° |
| 2026-05-05 15:24 | 48.93986 | 3.32516 | 20342 ft | 223 kts | 94° |
| 2026-05-05 15:24 | 48.93966 | 3.34878 | 20641 ft | 224 kts | 94° |
| 2026-05-05 15:24 | 48.93951 | 3.37246 | 21012 ft | 223 kts | 93° |
| 2026-05-05 15:25 | 48.93933 | 3.39603 | 21380 ft | 222 kts | 94° |
| 2026-05-05 15:25 | 48.93914 | 3.41941 | 21733 ft | 221 kts | 93° |
| 2026-05-05 15:25 | 48.93895 | 3.44275 | 22144 ft | 219 kts | 93° |
| 2026-05-05 15:25 | 48.93876 | 3.46589 | 22578 ft | 219 kts | 93° |
| 2026-05-05 15:26 | 48.93857 | 3.48881 | 22955 ft | 218 kts | 93° |
| 2026-05-05 15:26 | 48.93839 | 3.51161 | 23304 ft | 216 kts | 93° |
| 2026-05-05 15:26 | 48.93820 | 3.53449 | 23618 ft | 215 kts | 94° |
| 2026-05-05 15:26 | 48.93775 | 3.55715 | 23905 ft | 213 kts | 97° |
| 2026-05-05 15:27 | 48.93650 | 3.57960 | 24193 ft | 213 kts | 97° |
| 2026-05-05 15:27 | 48.93532 | 3.60207 | 24495 ft | 212 kts | 97° |
| 2026-05-05 15:27 | 48.93416 | 3.62416 | 24794 ft | 212 kts | 97° |
| 2026-05-05 15:27 | 48.93298 | 3.64645 | 25093 ft | 211 kts | 97° |
| 2026-05-05 15:28 | 48.93181 | 3.66869 | 25391 ft | 210 kts | 97° |
| 2026-05-05 15:28 | 48.93063 | 3.69090 | 25688 ft | 210 kts | 98° |
| 2026-05-05 15:28 | 48.92943 | 3.71305 | 25985 ft | 209 kts | 98° |
| 2026-05-05 15:28 | 48.92826 | 3.73513 | 26291 ft | 209 kts | 98° |
| 2026-05-05 15:29 | 48.92707 | 3.75714 | 26594 ft | 208 kts | 98° |
| 2026-05-05 15:29 | 48.92591 | 3.77906 | 26883 ft | 208 kts | 98° |
| 2026-05-05 15:29 | 48.92473 | 3.80098 | 27174 ft | 207 kts | 98° |
| 2026-05-05 15:29 | 48.92357 | 3.82252 | 27457 ft | 207 kts | 98° |
| 2026-05-05 15:30 | 48.92239 | 3.84432 | 27740 ft | 206 kts | 98° |
| 2026-05-05 15:30 | 48.92121 | 3.86600 | 28022 ft | 206 kts | 98° |
| 2026-05-05 15:30 | 48.92003 | 3.88773 | 28301 ft | 205 kts | 98° |
| 2026-05-05 15:30 | 48.91884 | 3.90929 | 28581 ft | 205 kts | 98° |
| 2026-05-05 15:31 | 48.91766 | 3.93087 | 28850 ft | 204 kts | 98° |
| 2026-05-05 15:31 | 48.91645 | 3.95242 | 29123 ft | 204 kts | 98° |
| 2026-05-05 15:31 | 48.91527 | 3.97359 | 29383 ft | 203 kts | 98° |
| 2026-05-05 15:31 | 48.91408 | 3.99509 | 29645 ft | 203 kts | 98° |
| 2026-05-05 15:32 | 48.91288 | 4.01644 | 29902 ft | 203 kts | 98° |
| 2026-05-05 15:32 | 48.91168 | 4.03783 | 30120 ft | 202 kts | 98° |
| 2026-05-05 15:32 | 48.91046 | 4.05908 | 30329 ft | 201 kts | 98° |
| 2026-05-05 15:32 | 48.90928 | 4.08028 | 30538 ft | 201 kts | 98° |
| 2026-05-05 15:33 | 48.90809 | 4.10119 | 30741 ft | 200 kts | 98° |
| 2026-05-05 15:33 | 48.90687 | 4.12259 | 30798 ft | 208 kts | 98° |
| 2026-05-05 15:33 | 48.90560 | 4.14492 | 30809 ft | 216 kts | 98° |
| 2026-05-05 15:33 | 48.90427 | 4.16819 | 30809 ft | 224 kts | 98° |
| 2026-05-05 15:34 | 48.90291 | 4.19226 | 30811 ft | 232 kts | 98° |
| 2026-05-05 15:34 | 48.90119 | 4.21675 | 30807 ft | 239 kts | 103° |
| 2026-05-05 15:34 | 48.89583 | 4.24078 | 30811 ft | 244 kts | 117° |
| 2026-05-05 15:34 | 48.88750 | 4.26358 | 30808 ft | 250 kts | 121° |
| 2026-05-05 15:35 | 48.87894 | 4.28710 | 30812 ft | 257 kts | 120° |
| 2026-05-05 15:35 | 48.87016 | 4.31134 | 30809 ft | 265 kts | 120° |
| 2026-05-05 15:35 | 48.86110 | 4.33610 | 30811 ft | 270 kts | 120° |
| 2026-05-05 15:35 | 48.85195 | 4.36100 | 30811 ft | 275 kts | 120° |
| 2026-05-05 15:36 | 48.84251 | 4.38677 | 30804 ft | 280 kts | 120° |
| 2026-05-05 15:36 | 48.83303 | 4.41266 | 30809 ft | 281 kts | 121° |
| 2026-05-05 15:36 | 48.82360 | 4.43835 | 30803 ft | 282 kts | 121° |
| 2026-05-05 15:36 | 48.81408 | 4.46426 | 30798 ft | 280 kts | 120° |
| 2026-05-05 15:37 | 48.80466 | 4.48996 | 30793 ft | 277 kts | 120° |
| 2026-05-05 15:37 | 48.79520 | 4.51561 | 30788 ft | 278 kts | 121° |
| 2026-05-05 15:37 | 48.78576 | 4.54125 | 30789 ft | 279 kts | 120° |
| 2026-05-05 15:37 | 48.77628 | 4.56703 | 30791 ft | 280 kts | 121° |
| 2026-05-05 15:38 | 48.76670 | 4.59293 | 30791 ft | 281 kts | 121° |
| 2026-05-05 15:38 | 48.75722 | 4.61859 | 30791 ft | 282 kts | 120° |
| 2026-05-05 15:38 | 48.74761 | 4.64462 | 30791 ft | 281 kts | 121° |
| 2026-05-05 15:38 | 48.73801 | 4.67054 | 30789 ft | 280 kts | 121° |
| 2026-05-05 15:39 | 48.72860 | 4.69597 | 30797 ft | 279 kts | 121° |
| 2026-05-05 15:39 | 48.71908 | 4.72163 | 30798 ft | 278 kts | 121° |
| 2026-05-05 15:39 | 48.70960 | 4.74710 | 30798 ft | 277 kts | 121° |
| 2026-05-05 15:39 | 48.70021 | 4.77237 | 30798 ft | 279 kts | 121° |
| 2026-05-05 15:40 | 48.69067 | 4.79803 | 30796 ft | 279 kts | 121° |
| 2026-05-05 15:40 | 48.68109 | 4.82371 | 30798 ft | 280 kts | 121° |
| 2026-05-05 15:40 | 48.67471 | 4.84084 | 30800 ft | 281 kts | 121° |
| 2026-05-05 15:40 | 48.66197 | 4.87504 | 30803 ft | 280 kts | 121° |
| 2026-05-05 15:41 | 48.65238 | 4.90069 | 30806 ft | 280 kts | 121° |
| 2026-05-05 15:41 | 48.64599 | 4.91776 | 30806 ft | 280 kts | 121° |
| 2026-05-05 15:41 | 48.63326 | 4.95181 | 30803 ft | 279 kts | 121° |
| 2026-05-05 15:41 | 48.62692 | 4.96874 | 30799 ft | 278 kts | 121° |
| 2026-05-05 15:42 | 48.61743 | 4.99411 | 30796 ft | 276 kts | 121° |
| 2026-05-05 15:42 | 48.60790 | 5.01949 | 30794 ft | 276 kts | 121° |
| 2026-05-05 15:42 | 48.59837 | 5.04488 | 30795 ft | 278 kts | 121° |
| 2026-05-05 15:42 | 48.58893 | 5.07001 | 30796 ft | 279 kts | 121° |
| 2026-05-05 15:43 | 48.57928 | 5.09563 | 30797 ft | 280 kts | 121° |
| 2026-05-05 15:43 | 48.56962 | 5.12132 | 30798 ft | 280 kts | 121° |
| 2026-05-05 15:43 | 48.55996 | 5.14692 | 30798 ft | 279 kts | 121° |
| 2026-05-05 15:43 | 48.55036 | 5.17236 | 30796 ft | 278 kts | 121° |
| 2026-05-05 15:44 | 48.54086 | 5.19750 | 30780 ft | 277 kts | 121° |
| 2026-05-05 15:44 | 48.53133 | 5.22272 | 30805 ft | 277 kts | 122° |
| 2026-05-05 15:44 | 48.52180 | 5.24790 | 30804 ft | 279 kts | 122° |
| 2026-05-05 15:44 | 48.51209 | 5.27349 | 30805 ft | 281 kts | 122° |
| 2026-05-05 15:45 | 48.50237 | 5.29915 | 30808 ft | 282 kts | 122° |
| 2026-05-05 15:45 | 48.49258 | 5.32490 | 30809 ft | 283 kts | 122° |
| 2026-05-05 15:45 | 48.48290 | 5.35043 | 30811 ft | 283 kts | 122° |
| 2026-05-05 15:45 | 48.47312 | 5.37617 | 30809 ft | 282 kts | 122° |
| 2026-05-05 15:46 | 48.46338 | 5.40175 | 30810 ft | 281 kts | 122° |
| 2026-05-05 15:46 | 48.45364 | 5.42731 | 30809 ft | 280 kts | 122° |
| 2026-05-05 15:46 | 48.44394 | 5.45279 | 30808 ft | 279 kts | 122° |
| 2026-05-05 15:46 | 48.43438 | 5.47784 | 30807 ft | 279 kts | 122° |
| 2026-05-05 15:47 | 48.42465 | 5.50332 | 30809 ft | 280 kts | 122° |
| 2026-05-05 15:47 | 48.41487 | 5.52886 | 30811 ft | 281 kts | 122° |
| 2026-05-05 15:47 | 48.40515 | 5.55424 | 30812 ft | 282 kts | 122° |
| 2026-05-05 15:47 | 48.39534 | 5.57988 | 30813 ft | 284 kts | 122° |
| 2026-05-05 15:48 | 48.38540 | 5.60575 | 30792 ft | 283 kts | 122° |
| 2026-05-05 15:48 | 48.37559 | 5.63128 | 30805 ft | 280 kts | 122° |
| 2026-05-05 15:48 | 48.36603 | 5.65621 | 30806 ft | 277 kts | 122° |
| 2026-05-05 15:48 | 48.35631 | 5.68144 | 30809 ft | 279 kts | 122° |
| 2026-05-05 15:49 | 48.34650 | 5.70689 | 30811 ft | 280 kts | 122° |
| 2026-05-05 15:49 | 48.33674 | 5.73223 | 30814 ft | 280 kts | 122° |
| 2026-05-05 15:49 | 48.32711 | 5.75722 | 30817 ft | 279 kts | 122° |
| 2026-05-05 15:49 | 48.31734 | 5.78250 | 30816 ft | 279 kts | 122° |
| 2026-05-05 15:50 | 48.30807 | 5.80821 | 30815 ft | 279 kts | 117° |
| 2026-05-05 15:50 | 48.29986 | 5.83463 | 30817 ft | 280 kts | 117° |
| 2026-05-05 15:50 | 48.29154 | 5.86095 | 30819 ft | 280 kts | 118° |
| 2026-05-05 15:50 | 48.28310 | 5.88742 | 30827 ft | 281 kts | 118° |
| 2026-05-05 15:51 | 48.27464 | 5.91410 | 30827 ft | 283 kts | 118° |
| 2026-05-05 15:51 | 48.26617 | 5.94079 | 30829 ft | 284 kts | 118° |
| 2026-05-05 15:51 | 48.25771 | 5.96742 | 30832 ft | 286 kts | 118° |
| 2026-05-05 15:51 | 48.24909 | 5.99448 | 30834 ft | 287 kts | 118° |
| 2026-05-05 15:52 | 48.24051 | 6.02134 | 30824 ft | 287 kts | 118° |
| 2026-05-05 15:52 | 48.23190 | 6.04834 | 30824 ft | 286 kts | 118° |
| 2026-05-05 15:52 | 48.22332 | 6.07527 | 30821 ft | 284 kts | 118° |
| 2026-05-05 15:52 | 48.21477 | 6.10194 | 30821 ft | 282 kts | 118° |
| 2026-05-05 15:53 | 48.20634 | 6.12829 | 30819 ft | 283 kts | 118° |
| 2026-05-05 15:53 | 48.19779 | 6.15494 | 30818 ft | 284 kts | 118° |
| 2026-05-05 15:53 | 48.18924 | 6.18161 | 30821 ft | 285 kts | 118° |
| 2026-05-05 15:53 | 48.18060 | 6.20852 | 30822 ft | 286 kts | 118° |
| 2026-05-05 15:54 | 48.17198 | 6.23534 | 30823 ft | 287 kts | 118° |
| 2026-05-05 15:54 | 48.16328 | 6.26242 | 30824 ft | 287 kts | 118° |
| 2026-05-05 15:54 | 48.15469 | 6.28908 | 30824 ft | 287 kts | 118° |
| 2026-05-05 15:54 | 48.14604 | 6.31593 | 30824 ft | 285 kts | 118° |
| 2026-05-05 15:55 | 48.13742 | 6.34263 | 30825 ft | 284 kts | 118° |
| 2026-05-05 15:55 | 48.12883 | 6.36926 | 30827 ft | 283 kts | 118° |
| 2026-05-05 15:55 | 48.12023 | 6.39579 | 30825 ft | 282 kts | 118° |
| 2026-05-05 15:55 | 48.11173 | 6.42207 | 30825 ft | 283 kts | 118° |
| 2026-05-05 15:56 | 48.10306 | 6.44878 | 30828 ft | 285 kts | 118° |
| 2026-05-05 15:56 | 48.09449 | 6.47519 | 30830 ft | 286 kts | 118° |
| 2026-05-05 15:56 | 48.08574 | 6.50211 | 30837 ft | 288 kts | 118° |
| 2026-05-05 15:56 | 48.07694 | 6.52915 | 30838 ft | 289 kts | 118° |
| 2026-05-05 15:57 | 48.06812 | 6.55631 | 30838 ft | 289 kts | 118° |
| 2026-05-05 15:57 | 48.05933 | 6.58326 | 30839 ft | 288 kts | 118° |
| 2026-05-05 15:57 | 48.05062 | 6.60993 | 30840 ft | 287 kts | 118° |
| 2026-05-05 15:57 | 48.04188 | 6.63682 | 30842 ft | 288 kts | 118° |
| 2026-05-05 15:58 | 48.03301 | 6.66389 | 30841 ft | 288 kts | 119° |
| 2026-05-05 15:58 | 48.02428 | 6.69050 | 30848 ft | 287 kts | 119° |
| 2026-05-05 15:58 | 48.01542 | 6.71758 | 30847 ft | 288 kts | 119° |
| 2026-05-05 15:58 | 48.00671 | 6.74420 | 30848 ft | 289 kts | 119° |
| 2026-05-05 15:59 | 47.99777 | 6.77141 | 30849 ft | 290 kts | 119° |
| 2026-05-05 15:59 | 47.98886 | 6.79855 | 30851 ft | 291 kts | 119° |
| 2026-05-05 15:59 | 47.98002 | 6.82542 | 30837 ft | 291 kts | 120° |
| 2026-05-05 15:59 | 47.97111 | 6.85245 | 30839 ft | 289 kts | 120° |
| 2026-05-05 16:00 | 47.96226 | 6.87932 | 30836 ft | 287 kts | 120° |
| 2026-05-05 16:00 | 47.95342 | 6.90611 | 30836 ft | 286 kts | 120° |
| 2026-05-05 16:00 | 47.94466 | 6.93257 | 30837 ft | 288 kts | 120° |
| 2026-05-05 16:00 | 47.93573 | 6.95955 | 30835 ft | 289 kts | 120° |
| 2026-05-05 16:01 | 47.92684 | 6.98646 | 30843 ft | 288 kts | 120° |
| 2026-05-05 16:01 | 47.91805 | 7.01297 | 30843 ft | 288 kts | 120° |
| 2026-05-05 16:01 | 47.90908 | 7.03995 | 30843 ft | 289 kts | 120° |
| 2026-05-05 16:01 | 47.90022 | 7.06663 | 30842 ft | 290 kts | 120° |
| 2026-05-05 16:02 | 47.89118 | 7.09393 | 30842 ft | 291 kts | 120° |
| 2026-05-05 16:02 | 47.88231 | 7.12059 | 30842 ft | 289 kts | 120° |
| 2026-05-05 16:02 | 47.87334 | 7.14749 | 30839 ft | 287 kts | 121° |
| 2026-05-05 16:02 | 47.86446 | 7.17410 | 30835 ft | 286 kts | 120° |
| 2026-05-05 16:03 | 47.85562 | 7.20060 | 30819 ft | 287 kts | 120° |
| 2026-05-05 16:03 | 47.84677 | 7.22709 | 30829 ft | 289 kts | 120° |
| 2026-05-05 16:03 | 47.83773 | 7.25415 | 30831 ft | 291 kts | 120° |
| 2026-05-05 16:03 | 47.82874 | 7.28095 | 30834 ft | 292 kts | 120° |
| 2026-05-05 16:04 | 47.81957 | 7.30828 | 30834 ft | 294 kts | 120° |
| 2026-05-05 16:04 | 47.81052 | 7.33526 | 30840 ft | 295 kts | 120° |
| 2026-05-05 16:04 | 47.80129 | 7.36272 | 30841 ft | 296 kts | 120° |
| 2026-05-05 16:04 | 47.79215 | 7.38994 | 30845 ft | 296 kts | 120° |
| 2026-05-05 16:05 | 47.78293 | 7.41733 | 30844 ft | 294 kts | 120° |
| 2026-05-05 16:05 | 47.77377 | 7.44452 | 30839 ft | 293 kts | 120° |
| 2026-05-05 16:05 | 47.76461 | 7.47166 | 30842 ft | 293 kts | 121° |
| 2026-05-05 16:05 | 47.75551 | 7.49855 | 30838 ft | 295 kts | 121° |
| 2026-05-05 16:06 | 47.74625 | 7.52600 | 30853 ft | 296 kts | 121° |
| 2026-05-05 16:06 | 47.73652 | 7.55266 | 30852 ft | 294 kts | 127° |
| 2026-05-05 16:06 | 47.72421 | 7.57717 | 30852 ft | 294 kts | 130° |
| 2026-05-05 16:06 | 47.71217 | 7.60154 | 30847 ft | 296 kts | 130° |
| 2026-05-05 16:07 | 47.70002 | 7.62643 | 30849 ft | 296 kts | 130° |
| 2026-05-05 16:07 | 47.68782 | 7.65109 | 30850 ft | 295 kts | 131° |
| 2026-05-05 16:07 | 47.67575 | 7.67530 | 30850 ft | 294 kts | 131° |
| 2026-05-05 16:07 | 47.66358 | 7.69977 | 30847 ft | 293 kts | 131° |
| 2026-05-05 16:08 | 47.65158 | 7.72397 | 30853 ft | 292 kts | 131° |
| 2026-05-05 16:08 | 47.63949 | 7.74830 | 30846 ft | 291 kts | 131° |
| 2026-05-05 16:08 | 47.62742 | 7.77251 | 30842 ft | 292 kts | 131° |
| 2026-05-05 16:08 | 47.61539 | 7.79664 | 30844 ft | 293 kts | 131° |
| 2026-05-05 16:09 | 47.60315 | 7.82114 | 30844 ft | 294 kts | 131° |
| 2026-05-05 16:09 | 47.59109 | 7.84533 | 30848 ft | 295 kts | 131° |
| 2026-05-05 16:09 | 47.57878 | 7.86997 | 30843 ft | 295 kts | 131° |
| 2026-05-05 16:09 | 47.56665 | 7.89423 | 30848 ft | 296 kts | 131° |
| 2026-05-05 16:10 | 47.55447 | 7.91860 | 30843 ft | 296 kts | 131° |
| 2026-05-05 16:10 | 47.54211 | 7.94327 | 30841 ft | 296 kts | 131° |
| 2026-05-05 16:10 | 47.52996 | 7.96749 | 30846 ft | 296 kts | 131° |
| 2026-05-05 16:10 | 47.51774 | 7.99189 | 30838 ft | 296 kts | 131° |
| 2026-05-05 16:11 | 47.50534 | 8.01653 | 30837 ft | 298 kts | 132° |
| 2026-05-05 16:12 | 47.45545 | 8.11565 | 30841 ft | 301 kts | 132° |
| 2026-05-05 16:12 | 47.43046 | 8.16517 | 30839 ft | 299 kts | 132° |
| 2026-05-05 16:13 | 47.39327 | 8.23867 | 30841 ft | 297 kts | 132° |
| 2026-05-05 16:13 | 47.38084 | 8.26317 | 30840 ft | 298 kts | 132° |
| 2026-05-05 16:13 | 47.36845 | 8.28761 | 30842 ft | 297 kts | 132° |
| 2026-05-05 16:14 | 47.34374 | 8.33628 | 30839 ft | 298 kts | 133° |
| 2026-05-05 16:14 | 47.31857 | 8.38575 | 30848 ft | 303 kts | 133° |
| 2026-05-05 16:15 | 47.29335 | 8.43522 | 30852 ft | 300 kts | 133° |
| 2026-05-05 16:15 | 47.26843 | 8.48407 | 30864 ft | 300 kts | 133° |
| 2026-05-05 16:16 | 47.21841 | 8.58473 | 30869 ft | 307 kts | 132° |
| 2026-05-05 16:17 | 47.18124 | 8.65993 | 30866 ft | 302 kts | 132° |